sensor_id;sensor_type;location;lat;lon;timestamp;P1;durP1;ratioP1;P2;durP2;ratioP2
10452;SDS011;5274;51.992;8.518;2023-11-21T00:00:26;55.60;;;51.15;;
10452;SDS011;5274;51.992;8.518;2023-11-21T00:02:52;55.67;;;50.90;;
10452;SDS011;5274;51.992;8.518;2023-11-21T00:05:18;56.50;;;52.40;;
10452;SDS011;5274;51.992;8.518;2023-11-21T00:07:44;51.28;;;47.58;;
10452;SDS011;5274;51.992;8.518;2023-11-21T00:10:10;50.42;;;46.20;;
10452;SDS011;5274;51.992;8.518;2023-11-21T00:12:39;49.88;;;46.10;;
10452;SDS011;5274;51.992;8.518;2023-11-21T00:15:07;51.80;;;47.60;;
10452;SDS011;5274;51.992;8.518;2023-11-21T00:17:35;52.72;;;48.65;;
10452;SDS011;5274;51.992;8.518;2023-11-21T00:20:01;54.38;;;50.25;;
10452;SDS011;5274;51.992;8.518;2023-11-21T00:22:31;56.75;;;52.25;;
10452;SDS011;5274;51.992;8.518;2023-11-21T00:24:57;57.35;;;53.35;;
10452;SDS011;5274;51.992;8.518;2023-11-21T00:27:23;56.78;;;52.30;;
10452;SDS011;5274;51.992;8.518;2023-11-21T00:29:49;57.45;;;52.50;;
10452;SDS011;5274;51.992;8.518;2023-11-21T00:32:15;56.05;;;51.80;;
10452;SDS011;5274;51.992;8.518;2023-11-21T00:34:41;52.60;;;48.80;;
10452;SDS011;5274;51.992;8.518;2023-11-21T00:37:07;54.92;;;50.35;;
10452;SDS011;5274;51.992;8.518;2023-11-21T00:39:33;56.10;;;51.97;;
10452;SDS011;5274;51.992;8.518;2023-11-21T00:42:00;56.38;;;51.92;;
10452;SDS011;5274;51.992;8.518;2023-11-21T00:44:26;59.50;;;54.90;;
10452;SDS011;5274;51.992;8.518;2023-11-21T00:46:52;60.95;;;56.33;;
10452;SDS011;5274;51.992;8.518;2023-11-21T00:49:18;60.67;;;56.10;;
10452;SDS011;5274;51.992;8.518;2023-11-21T00:51:44;59.00;;;54.70;;
10452;SDS011;5274;51.992;8.518;2023-11-21T00:54:10;58.42;;;53.92;;
10452;SDS011;5274;51.992;8.518;2023-11-21T00:56:36;58.40;;;53.85;;
10452;SDS011;5274;51.992;8.518;2023-11-21T00:59:02;62.30;;;57.33;;
10452;SDS011;5274;51.992;8.518;2023-11-21T01:01:29;59.97;;;55.22;;
10452;SDS011;5274;51.992;8.518;2023-11-21T01:03:55;60.45;;;55.65;;
10452;SDS011;5274;51.992;8.518;2023-11-21T01:06:21;58.25;;;53.85;;
10452;SDS011;5274;51.992;8.518;2023-11-21T01:08:47;59.03;;;54.47;;
10452;SDS011;5274;51.992;8.518;2023-11-21T01:11:13;61.85;;;57.00;;
10452;SDS011;5274;51.992;8.518;2023-11-21T01:13:40;61.53;;;56.38;;
10452;SDS011;5274;51.992;8.518;2023-11-21T01:16:06;59.80;;;55.22;;
10452;SDS011;5274;51.992;8.518;2023-11-21T01:18:32;60.08;;;55.42;;
10452;SDS011;5274;51.992;8.518;2023-11-21T01:20:58;60.53;;;55.70;;
10452;SDS011;5274;51.992;8.518;2023-11-21T01:23:25;61.83;;;56.70;;
10452;SDS011;5274;51.992;8.518;2023-11-21T01:25:51;62.17;;;57.10;;
10452;SDS011;5274;51.992;8.518;2023-11-21T01:28:17;60.60;;;55.70;;
10452;SDS011;5274;51.992;8.518;2023-11-21T01:30:44;59.85;;;55.28;;
10452;SDS011;5274;51.992;8.518;2023-11-21T01:33:10;60.33;;;55.83;;
10452;SDS011;5274;51.992;8.518;2023-11-21T01:35:36;57.88;;;53.33;;
10452;SDS011;5274;51.992;8.518;2023-11-21T01:38:02;59.63;;;54.92;;
10452;SDS011;5274;51.992;8.518;2023-11-21T01:40:33;59.85;;;55.22;;
10452;SDS011;5274;51.992;8.518;2023-11-21T01:42:59;60.83;;;55.85;;
10452;SDS011;5274;51.992;8.518;2023-11-21T01:45:28;59.88;;;55.20;;
10452;SDS011;5274;51.992;8.518;2023-11-21T01:47:56;60.53;;;55.63;;
10452;SDS011;5274;51.992;8.518;2023-11-21T01:50:22;58.92;;;54.50;;
10452;SDS011;5274;51.992;8.518;2023-11-21T01:52:48;60.58;;;55.67;;
10452;SDS011;5274;51.992;8.518;2023-11-21T01:55:15;60.00;;;55.28;;
10452;SDS011;5274;51.992;8.518;2023-11-21T01:57:45;60.22;;;54.95;;
10452;SDS011;5274;51.992;8.518;2023-11-21T02:00:11;61.35;;;56.35;;
10452;SDS011;5274;51.992;8.518;2023-11-21T02:02:42;59.10;;;54.58;;
10452;SDS011;5274;51.992;8.518;2023-11-21T02:05:09;60.95;;;56.25;;
10452;SDS011;5274;51.992;8.518;2023-11-21T02:07:35;59.20;;;54.92;;
10452;SDS011;5274;51.992;8.518;2023-11-21T02:10:00;61.42;;;56.60;;
10452;SDS011;5274;51.992;8.518;2023-11-21T02:12:27;60.03;;;55.17;;
10452;SDS011;5274;51.992;8.518;2023-11-21T02:14:53;58.13;;;53.78;;
10452;SDS011;5274;51.992;8.518;2023-11-21T02:17:19;56.90;;;52.88;;
10452;SDS011;5274;51.992;8.518;2023-11-21T02:19:45;58.03;;;53.42;;
10452;SDS011;5274;51.992;8.518;2023-11-21T02:22:12;58.42;;;53.85;;
10452;SDS011;5274;51.992;8.518;2023-11-21T02:24:40;59.17;;;54.78;;
10452;SDS011;5274;51.992;8.518;2023-11-21T02:27:07;59.15;;;54.65;;
10452;SDS011;5274;51.992;8.518;2023-11-21T02:29:33;58.80;;;54.10;;
10452;SDS011;5274;51.992;8.518;2023-11-21T02:31:59;60.05;;;54.88;;
10452;SDS011;5274;51.992;8.518;2023-11-21T02:34:25;58.30;;;53.35;;
10452;SDS011;5274;51.992;8.518;2023-11-21T02:36:51;57.35;;;53.15;;
10452;SDS011;5274;51.992;8.518;2023-11-21T02:39:17;54.42;;;50.47;;
10452;SDS011;5274;51.992;8.518;2023-11-21T02:41:46;55.42;;;50.78;;
10452;SDS011;5274;51.992;8.518;2023-11-21T02:44:12;56.65;;;52.33;;
10452;SDS011;5274;51.992;8.518;2023-11-21T02:46:38;55.85;;;51.42;;
10452;SDS011;5274;51.992;8.518;2023-11-21T02:49:05;55.22;;;51.08;;
10452;SDS011;5274;51.992;8.518;2023-11-21T02:51:31;57.67;;;52.75;;
10452;SDS011;5274;51.992;8.518;2023-11-21T02:53:57;58.72;;;54.13;;
10452;SDS011;5274;51.992;8.518;2023-11-21T02:56:27;57.30;;;52.67;;
10452;SDS011;5274;51.992;8.518;2023-11-21T02:58:55;61.35;;;56.63;;
10452;SDS011;5274;51.992;8.518;2023-11-21T03:01:21;59.38;;;54.97;;
10452;SDS011;5274;51.992;8.518;2023-11-21T03:03:49;60.40;;;55.67;;
10452;SDS011;5274;51.992;8.518;2023-11-21T03:06:16;57.97;;;53.13;;
10452;SDS011;5274;51.992;8.518;2023-11-21T03:08:42;58.05;;;53.63;;
10452;SDS011;5274;51.992;8.518;2023-11-21T03:11:08;56.05;;;51.88;;
10452;SDS011;5274;51.992;8.518;2023-11-21T03:13:34;57.00;;;52.55;;
10452;SDS011;5274;51.992;8.518;2023-11-21T03:16:00;59.45;;;54.88;;
10452;SDS011;5274;51.992;8.518;2023-11-21T03:18:26;59.20;;;54.33;;
10452;SDS011;5274;51.992;8.518;2023-11-21T03:20:54;60.55;;;55.38;;
10452;SDS011;5274;51.992;8.518;2023-11-21T03:23:20;61.40;;;56.28;;
10452;SDS011;5274;51.992;8.518;2023-11-21T03:25:45;62.85;;;57.20;;
10452;SDS011;5274;51.992;8.518;2023-11-21T03:28:11;62.40;;;56.85;;
10452;SDS011;5274;51.992;8.518;2023-11-21T03:30:38;64.80;;;58.50;;
10452;SDS011;5274;51.992;8.518;2023-11-21T03:33:03;60.90;;;55.80;;
10452;SDS011;5274;51.992;8.518;2023-11-21T03:35:29;62.38;;;56.75;;
10452;SDS011;5274;51.992;8.518;2023-11-21T03:37:55;62.80;;;57.25;;
10452;SDS011;5274;51.992;8.518;2023-11-21T03:40:21;62.13;;;56.47;;
10452;SDS011;5274;51.992;8.518;2023-11-21T03:42:47;64.35;;;58.03;;
10452;SDS011;5274;51.992;8.518;2023-11-21T03:45:13;64.50;;;58.33;;
10452;SDS011;5274;51.992;8.518;2023-11-21T03:47:40;65.95;;;59.13;;
10452;SDS011;5274;51.992;8.518;2023-11-21T03:50:06;66.43;;;60.03;;
10452;SDS011;5274;51.992;8.518;2023-11-21T03:52:34;69.05;;;61.97;;
10452;SDS011;5274;51.992;8.518;2023-11-21T03:55:00;69.80;;;62.53;;
10452;SDS011;5274;51.992;8.518;2023-11-21T03:57:26;65.57;;;59.65;;
10452;SDS011;5274;51.992;8.518;2023-11-21T03:59:53;66.63;;;59.75;;
10452;SDS011;5274;51.992;8.518;2023-11-21T04:02:19;65.18;;;58.90;;
10452;SDS011;5274;51.992;8.518;2023-11-21T04:04:45;65.80;;;59.70;;
10452;SDS011;5274;51.992;8.518;2023-11-21T04:07:11;65.75;;;59.83;;
10452;SDS011;5274;51.992;8.518;2023-11-21T04:09:38;67.53;;;60.80;;
10452;SDS011;5274;51.992;8.518;2023-11-21T04:12:04;54.08;;;39.92;;
10452;SDS011;5274;51.992;8.518;2023-11-21T04:14:30;46.35;;;39.88;;
10452;SDS011;5274;51.992;8.518;2023-11-21T04:16:56;45.65;;;40.15;;
10452;SDS011;5274;51.992;8.518;2023-11-21T04:19:22;44.13;;;39.67;;
10452;SDS011;5274;51.992;8.518;2023-11-21T04:21:48;45.65;;;40.75;;
10452;SDS011;5274;51.992;8.518;2023-11-21T04:24:14;47.42;;;42.17;;
10452;SDS011;5274;51.992;8.518;2023-11-21T04:26:40;53.08;;;42.42;;
10452;SDS011;5274;51.992;8.518;2023-11-21T04:29:06;43.28;;;38.65;;
10452;SDS011;5274;51.992;8.518;2023-11-21T04:31:32;43.28;;;38.70;;
10452;SDS011;5274;51.992;8.518;2023-11-21T04:33:58;47.38;;;41.63;;
10452;SDS011;5274;51.992;8.518;2023-11-21T04:36:24;49.50;;;44.35;;
10452;SDS011;5274;51.992;8.518;2023-11-21T04:38:50;49.47;;;44.15;;
10452;SDS011;5274;51.992;8.518;2023-11-21T04:41:16;48.53;;;43.78;;
10452;SDS011;5274;51.992;8.518;2023-11-21T04:43:43;48.20;;;41.60;;
10452;SDS011;5274;51.992;8.518;2023-11-21T04:46:08;43.90;;;39.38;;
10452;SDS011;5274;51.992;8.518;2023-11-21T04:48:34;53.97;;;48.92;;
10452;SDS011;5274;51.992;8.518;2023-11-21T04:51:00;45.53;;;41.17;;
10452;SDS011;5274;51.992;8.518;2023-11-21T04:53:26;50.30;;;45.40;;
10452;SDS011;5274;51.992;8.518;2023-11-21T04:55:52;48.60;;;44.00;;
10452;SDS011;5274;51.992;8.518;2023-11-21T04:58:18;49.58;;;44.53;;
10452;SDS011;5274;51.992;8.518;2023-11-21T05:00:45;47.70;;;43.17;;
10452;SDS011;5274;51.992;8.518;2023-11-21T05:03:11;52.47;;;47.78;;
10452;SDS011;5274;51.992;8.518;2023-11-21T05:05:37;53.28;;;47.72;;
10452;SDS011;5274;51.992;8.518;2023-11-21T05:08:03;49.83;;;44.30;;
10452;SDS011;5274;51.992;8.518;2023-11-21T05:10:30;50.65;;;45.45;;
10452;SDS011;5274;51.992;8.518;2023-11-21T05:12:56;53.67;;;47.90;;
10452;SDS011;5274;51.992;8.518;2023-11-21T05:15:23;55.20;;;50.00;;
10452;SDS011;5274;51.992;8.518;2023-11-21T05:17:49;50.97;;;46.10;;
10452;SDS011;5274;51.992;8.518;2023-11-21T05:20:17;49.67;;;44.55;;
10452;SDS011;5274;51.992;8.518;2023-11-21T05:22:46;49.80;;;44.88;;
10452;SDS011;5274;51.992;8.518;2023-11-21T05:25:13;53.70;;;48.90;;
10452;SDS011;5274;51.992;8.518;2023-11-21T05:27:39;52.95;;;48.38;;
10452;SDS011;5274;51.992;8.518;2023-11-21T05:30:05;52.08;;;47.28;;
10452;SDS011;5274;51.992;8.518;2023-11-21T05:32:34;52.85;;;47.60;;
10452;SDS011;5274;51.992;8.518;2023-11-21T05:35:00;49.85;;;44.53;;
10452;SDS011;5274;51.992;8.518;2023-11-21T05:37:26;54.08;;;48.60;;
10452;SDS011;5274;51.992;8.518;2023-11-21T05:39:53;50.95;;;46.15;;
10452;SDS011;5274;51.992;8.518;2023-11-21T05:42:21;51.47;;;46.65;;
10452;SDS011;5274;51.992;8.518;2023-11-21T05:44:47;53.95;;;48.80;;
10452;SDS011;5274;51.992;8.518;2023-11-21T05:47:13;51.88;;;47.25;;
10452;SDS011;5274;51.992;8.518;2023-11-21T05:49:39;52.70;;;47.53;;
10452;SDS011;5274;51.992;8.518;2023-11-21T05:52:05;51.17;;;46.05;;
10452;SDS011;5274;51.992;8.518;2023-11-21T05:54:31;50.55;;;45.65;;
10452;SDS011;5274;51.992;8.518;2023-11-21T05:56:57;47.75;;;42.80;;
10452;SDS011;5274;51.992;8.518;2023-11-21T05:59:23;54.05;;;49.00;;
10452;SDS011;5274;51.992;8.518;2023-11-21T06:01:49;53.33;;;48.40;;
10452;SDS011;5274;51.992;8.518;2023-11-21T06:04:15;52.08;;;47.55;;
10452;SDS011;5274;51.992;8.518;2023-11-21T06:06:41;53.78;;;48.53;;
10452;SDS011;5274;51.992;8.518;2023-11-21T06:09:07;54.35;;;49.63;;
10452;SDS011;5274;51.992;8.518;2023-11-21T06:11:34;54.58;;;50.00;;
10452;SDS011;5274;51.992;8.518;2023-11-21T06:14:00;56.35;;;51.10;;
10452;SDS011;5274;51.992;8.518;2023-11-21T06:16:26;50.78;;;46.40;;
10452;SDS011;5274;51.992;8.518;2023-11-21T06:18:53;47.92;;;43.65;;
10452;SDS011;5274;51.992;8.518;2023-11-21T06:21:19;51.30;;;46.63;;
10452;SDS011;5274;51.992;8.518;2023-11-21T06:23:45;56.53;;;52.03;;
10452;SDS011;5274;51.992;8.518;2023-11-21T06:26:11;51.05;;;46.15;;
10452;SDS011;5274;51.992;8.518;2023-11-21T06:28:37;46.63;;;42.13;;
10452;SDS011;5274;51.992;8.518;2023-11-21T06:31:03;45.58;;;41.65;;
10452;SDS011;5274;51.992;8.518;2023-11-21T06:33:33;52.83;;;48.00;;
10452;SDS011;5274;51.992;8.518;2023-11-21T06:35:59;56.80;;;52.30;;
10452;SDS011;5274;51.992;8.518;2023-11-21T06:38:28;46.85;;;42.92;;
10452;SDS011;5274;51.992;8.518;2023-11-21T06:40:55;49.75;;;45.20;;
10452;SDS011;5274;51.992;8.518;2023-11-21T06:43:23;50.55;;;46.05;;
10452;SDS011;5274;51.992;8.518;2023-11-21T06:45:49;52.65;;;48.05;;
10452;SDS011;5274;51.992;8.518;2023-11-21T06:48:15;51.63;;;47.40;;
10452;SDS011;5274;51.992;8.518;2023-11-21T06:50:41;51.75;;;47.15;;
10452;SDS011;5274;51.992;8.518;2023-11-21T06:53:07;46.15;;;41.85;;
10452;SDS011;5274;51.992;8.518;2023-11-21T06:55:34;46.53;;;42.20;;
10452;SDS011;5274;51.992;8.518;2023-11-21T06:58:01;50.60;;;45.88;;
10452;SDS011;5274;51.992;8.518;2023-11-21T07:00:27;49.10;;;44.42;;
10452;SDS011;5274;51.992;8.518;2023-11-21T07:02:53;51.97;;;47.10;;
10452;SDS011;5274;51.992;8.518;2023-11-21T07:05:22;50.10;;;45.13;;
10452;SDS011;5274;51.992;8.518;2023-11-21T07:07:49;51.45;;;47.25;;
10452;SDS011;5274;51.992;8.518;2023-11-21T07:10:15;52.17;;;47.15;;
10452;SDS011;5274;51.992;8.518;2023-11-21T07:12:42;52.33;;;47.22;;
10452;SDS011;5274;51.992;8.518;2023-11-21T07:15:08;50.65;;;45.80;;
10452;SDS011;5274;51.992;8.518;2023-11-21T07:17:37;49.22;;;44.65;;
10452;SDS011;5274;51.992;8.518;2023-11-21T07:20:03;52.30;;;47.80;;
10452;SDS011;5274;51.992;8.518;2023-11-21T07:22:29;48.97;;;44.05;;
10452;SDS011;5274;51.992;8.518;2023-11-21T07:24:55;49.45;;;44.53;;
10452;SDS011;5274;51.992;8.518;2023-11-21T07:27:24;53.20;;;48.40;;
10452;SDS011;5274;51.992;8.518;2023-11-21T07:29:50;55.30;;;50.33;;
10452;SDS011;5274;51.992;8.518;2023-11-21T07:32:16;53.47;;;47.92;;
10452;SDS011;5274;51.992;8.518;2023-11-21T07:34:42;50.53;;;46.03;;
10452;SDS011;5274;51.992;8.518;2023-11-21T07:37:08;49.30;;;44.97;;
10452;SDS011;5274;51.992;8.518;2023-11-21T07:39:34;51.13;;;46.08;;
10452;SDS011;5274;51.992;8.518;2023-11-21T07:42:01;48.10;;;43.25;;
10452;SDS011;5274;51.992;8.518;2023-11-21T07:44:27;52.97;;;48.30;;
10452;SDS011;5274;51.992;8.518;2023-11-21T07:46:53;51.92;;;46.72;;
10452;SDS011;5274;51.992;8.518;2023-11-21T07:49:22;49.45;;;44.83;;
10452;SDS011;5274;51.992;8.518;2023-11-21T07:51:48;43.08;;;38.65;;
10452;SDS011;5274;51.992;8.518;2023-11-21T07:54:14;46.47;;;39.22;;
10452;SDS011;5274;51.992;8.518;2023-11-21T07:56:40;42.53;;;38.00;;
10452;SDS011;5274;51.992;8.518;2023-11-21T07:59:07;44.53;;;38.30;;
10452;SDS011;5274;51.992;8.518;2023-11-21T08:01:33;42.20;;;37.60;;
10452;SDS011;5274;51.992;8.518;2023-11-21T08:03:59;43.22;;;38.95;;
10452;SDS011;5274;51.992;8.518;2023-11-21T08:06:28;50.85;;;45.80;;
10452;SDS011;5274;51.992;8.518;2023-11-21T08:08:54;45.40;;;40.83;;
10452;SDS011;5274;51.992;8.518;2023-11-21T08:11:20;48.05;;;43.53;;
10452;SDS011;5274;51.992;8.518;2023-11-21T08:13:46;45.65;;;41.70;;
10452;SDS011;5274;51.992;8.518;2023-11-21T08:16:12;44.65;;;40.25;;
10452;SDS011;5274;51.992;8.518;2023-11-21T08:18:38;42.58;;;38.42;;
10452;SDS011;5274;51.992;8.518;2023-11-21T08:21:05;46.85;;;42.42;;
10452;SDS011;5274;51.992;8.518;2023-11-21T08:23:31;43.22;;;39.28;;
10452;SDS011;5274;51.992;8.518;2023-11-21T08:25:57;42.15;;;38.38;;
10452;SDS011;5274;51.992;8.518;2023-11-21T08:28:23;47.17;;;42.60;;
10452;SDS011;5274;51.992;8.518;2023-11-21T08:30:51;48.22;;;43.35;;
10452;SDS011;5274;51.992;8.518;2023-11-21T08:33:18;47.10;;;43.17;;
10452;SDS011;5274;51.992;8.518;2023-11-21T08:35:44;48.58;;;44.33;;
10452;SDS011;5274;51.992;8.518;2023-11-21T08:38:10;39.83;;;36.35;;
10452;SDS011;5274;51.992;8.518;2023-11-21T08:40:37;44.85;;;40.85;;
10452;SDS011;5274;51.992;8.518;2023-11-21T08:43:03;45.15;;;41.70;;
10452;SDS011;5274;51.992;8.518;2023-11-21T08:45:33;43.92;;;40.10;;
10452;SDS011;5274;51.992;8.518;2023-11-21T08:47:59;38.40;;;35.20;;
10452;SDS011;5274;51.992;8.518;2023-11-21T08:50:26;39.83;;;36.63;;
10452;SDS011;5274;51.992;8.518;2023-11-21T08:52:52;44.17;;;40.63;;
10452;SDS011;5274;51.992;8.518;2023-11-21T08:55:17;44.70;;;41.00;;
10452;SDS011;5274;51.992;8.518;2023-11-21T08:57:45;46.17;;;42.53;;
10452;SDS011;5274;51.992;8.518;2023-11-21T09:00:14;39.58;;;35.95;;
10452;SDS011;5274;51.992;8.518;2023-11-21T09:02:42;44.58;;;40.45;;
10452;SDS011;5274;51.992;8.518;2023-11-21T09:05:11;43.50;;;40.00;;
10452;SDS011;5274;51.992;8.518;2023-11-21T09:07:38;40.60;;;37.13;;
10452;SDS011;5274;51.992;8.518;2023-11-21T09:10:04;42.10;;;38.65;;
10452;SDS011;5274;51.992;8.518;2023-11-21T09:12:32;44.08;;;40.40;;
10452;SDS011;5274;51.992;8.518;2023-11-21T09:15:00;41.80;;;38.47;;
10452;SDS011;5274;51.992;8.518;2023-11-21T09:17:25;36.45;;;33.17;;
10452;SDS011;5274;51.992;8.518;2023-11-21T09:19:51;36.92;;;33.72;;
10452;SDS011;5274;51.992;8.518;2023-11-21T09:22:17;37.78;;;34.42;;
10452;SDS011;5274;51.992;8.518;2023-11-21T09:24:43;38.08;;;35.22;;
10452;SDS011;5274;51.992;8.518;2023-11-21T09:27:09;37.33;;;34.50;;
10452;SDS011;5274;51.992;8.518;2023-11-21T09:29:36;38.17;;;35.15;;
10452;SDS011;5274;51.992;8.518;2023-11-21T09:32:05;35.38;;;32.70;;
10452;SDS011;5274;51.992;8.518;2023-11-21T09:34:33;40.95;;;38.05;;
10452;SDS011;5274;51.992;8.518;2023-11-21T09:37:03;43.78;;;40.67;;
10452;SDS011;5274;51.992;8.518;2023-11-21T09:39:31;35.55;;;33.05;;
10452;SDS011;5274;51.992;8.518;2023-11-21T09:42:01;40.42;;;37.53;;
10452;SDS011;5274;51.992;8.518;2023-11-21T09:44:40;37.22;;;34.40;;
10452;SDS011;5274;51.992;8.518;2023-11-21T09:47:10;38.60;;;35.50;;
10452;SDS011;5274;51.992;8.518;2023-11-21T09:49:41;37.45;;;34.75;;
10452;SDS011;5274;51.992;8.518;2023-11-21T09:52:07;37.55;;;34.92;;
10452;SDS011;5274;51.992;8.518;2023-11-21T09:54:34;39.53;;;36.67;;
10452;SDS011;5274;51.992;8.518;2023-11-21T09:57:01;39.17;;;36.50;;
10452;SDS011;5274;51.992;8.518;2023-11-21T09:59:30;38.58;;;35.88;;
10452;SDS011;5274;51.992;8.518;2023-11-21T10:01:57;44.72;;;41.53;;
10452;SDS011;5274;51.992;8.518;2023-11-21T10:04:23;38.72;;;35.90;;
10452;SDS011;5274;51.992;8.518;2023-11-21T10:06:49;43.92;;;40.90;;
10452;SDS011;5274;51.992;8.518;2023-11-21T10:09:16;42.45;;;39.47;;
10452;SDS011;5274;51.992;8.518;2023-11-21T10:11:42;41.20;;;37.88;;
10452;SDS011;5274;51.992;8.518;2023-11-21T10:14:10;46.42;;;42.33;;
10452;SDS011;5274;51.992;8.518;2023-11-21T10:16:37;38.00;;;34.78;;
10452;SDS011;5274;51.992;8.518;2023-11-21T10:19:04;39.25;;;35.13;;
10452;SDS011;5274;51.992;8.518;2023-11-21T10:21:34;41.88;;;37.92;;
10452;SDS011;5274;51.992;8.518;2023-11-21T10:24:00;69.00;;;34.35;;
10452;SDS011;5274;51.992;8.518;2023-11-21T10:26:26;42.50;;;39.40;;
10452;SDS011;5274;51.992;8.518;2023-11-21T10:29:00;31.58;;;27.63;;
10452;SDS011;5274;51.992;8.518;2023-11-21T10:31:32;34.33;;;31.13;;
10452;SDS011;5274;51.992;8.518;2023-11-21T10:34:14;44.13;;;26.42;;
10452;SDS011;5274;51.992;8.518;2023-11-21T10:36:40;28.35;;;26.65;;
10452;SDS011;5274;51.992;8.518;2023-11-21T10:39:06;46.47;;;27.27;;
10452;SDS011;5274;51.992;8.518;2023-11-21T10:41:32;31.55;;;28.73;;
10452;SDS011;5274;51.992;8.518;2023-11-21T10:43:59;34.97;;;27.58;;
10452;SDS011;5274;51.992;8.518;2023-11-21T10:46:25;31.20;;;28.52;;
10452;SDS011;5274;51.992;8.518;2023-11-21T10:48:54;63.88;;;32.70;;
10452;SDS011;5274;51.992;8.518;2023-11-21T10:51:21;45.78;;;42.00;;
10452;SDS011;5274;51.992;8.518;2023-11-21T10:53:47;50.97;;;45.85;;
10452;SDS011;5274;51.992;8.518;2023-11-21T10:56:15;64.57;;;46.33;;
10452;SDS011;5274;51.992;8.518;2023-11-21T10:58:45;52.60;;;47.55;;
10452;SDS011;5274;51.992;8.518;2023-11-21T11:01:11;62.28;;;45.90;;
10452;SDS011;5274;51.992;8.518;2023-11-21T11:03:39;49.30;;;44.88;;
10452;SDS011;5274;51.992;8.518;2023-11-21T11:06:05;80.40;;;45.08;;
10452;SDS011;5274;51.992;8.518;2023-11-21T11:08:36;47.03;;;44.20;;
10452;SDS011;5274;51.992;8.518;2023-11-21T11:11:02;114.40;;;46.17;;
10452;SDS011;5274;51.992;8.518;2023-11-21T11:13:28;45.55;;;42.92;;
10452;SDS011;5274;51.992;8.518;2023-11-21T11:15:57;45.10;;;42.33;;
10452;SDS011;5274;51.992;8.518;2023-11-21T11:18:27;45.30;;;42.63;;
10452;SDS011;5274;51.992;8.518;2023-11-21T11:20:54;45.25;;;42.85;;
10452;SDS011;5274;51.992;8.518;2023-11-21T11:23:36;45.17;;;42.53;;
10452;SDS011;5274;51.992;8.518;2023-11-21T11:26:24;48.20;;;45.40;;
10452;SDS011;5274;51.992;8.518;2023-11-21T11:29:03;48.30;;;45.60;;
10452;SDS011;5274;51.992;8.518;2023-11-21T11:31:40;46.78;;;44.17;;
10452;SDS011;5274;51.992;8.518;2023-11-21T11:36:41;43.83;;;41.40;;
10452;SDS011;5274;51.992;8.518;2023-11-21T11:39:28;42.35;;;39.90;;
10452;SDS011;5274;51.992;8.518;2023-11-21T11:41:58;50.67;;;47.55;;
10452;SDS011;5274;51.992;8.518;2023-11-21T11:47:27;55.17;;;51.53;;
10452;SDS011;5274;51.992;8.518;2023-11-21T11:50:07;54.63;;;51.33;;
10452;SDS011;5274;51.992;8.518;2023-11-21T11:55:16;61.45;;;57.40;;
10452;SDS011;5274;51.992;8.518;2023-11-21T11:57:47;62.22;;;58.25;;
10452;SDS011;5274;51.992;8.518;2023-11-21T12:00:16;60.88;;;56.80;;
10452;SDS011;5274;51.992;8.518;2023-11-21T12:02:48;60.33;;;56.58;;
10452;SDS011;5274;51.992;8.518;2023-11-21T12:05:15;59.03;;;55.13;;
10452;SDS011;5274;51.992;8.518;2023-11-21T12:10:11;57.67;;;53.92;;
10452;SDS011;5274;51.992;8.518;2023-11-21T12:12:37;59.20;;;55.25;;
10452;SDS011;5274;51.992;8.518;2023-11-21T12:15:04;59.45;;;55.55;;
10452;SDS011;5274;51.992;8.518;2023-11-21T12:17:30;60.15;;;56.05;;
10452;SDS011;5274;51.992;8.518;2023-11-21T12:20:02;59.20;;;55.30;;
10452;SDS011;5274;51.992;8.518;2023-11-21T12:22:29;59.33;;;55.33;;
10452;SDS011;5274;51.992;8.518;2023-11-21T12:24:55;63.10;;;58.80;;
10452;SDS011;5274;51.992;8.518;2023-11-21T12:27:21;60.17;;;56.00;;
10452;SDS011;5274;51.992;8.518;2023-11-21T12:29:47;63.75;;;59.30;;
10452;SDS011;5274;51.992;8.518;2023-11-21T12:32:13;62.30;;;57.88;;
10452;SDS011;5274;51.992;8.518;2023-11-21T12:34:41;59.03;;;55.03;;
10452;SDS011;5274;51.992;8.518;2023-11-21T12:37:07;58.88;;;54.92;;
10452;SDS011;5274;51.992;8.518;2023-11-21T12:39:33;58.85;;;54.90;;
10452;SDS011;5274;51.992;8.518;2023-11-21T12:41:59;57.67;;;53.72;;
10452;SDS011;5274;51.992;8.518;2023-11-21T12:44:25;60.20;;;56.00;;
10452;SDS011;5274;51.992;8.518;2023-11-21T12:46:51;59.80;;;55.78;;
10452;SDS011;5274;51.992;8.518;2023-11-21T12:49:18;57.72;;;53.83;;
10452;SDS011;5274;51.992;8.518;2023-11-21T12:51:45;58.25;;;54.25;;
10452;SDS011;5274;51.992;8.518;2023-11-21T12:54:12;59.60;;;55.50;;
10452;SDS011;5274;51.992;8.518;2023-11-21T12:56:38;60.67;;;56.65;;
10452;SDS011;5274;51.992;8.518;2023-11-21T12:59:04;61.42;;;57.25;;
10452;SDS011;5274;51.992;8.518;2023-11-21T13:01:30;62.88;;;58.47;;
10452;SDS011;5274;51.992;8.518;2023-11-21T13:03:57;62.90;;;58.50;;
10452;SDS011;5274;51.992;8.518;2023-11-21T13:06:23;60.67;;;56.58;;
10452;SDS011;5274;51.992;8.518;2023-11-21T13:08:50;59.80;;;55.78;;
10452;SDS011;5274;51.992;8.518;2023-11-21T13:11:17;58.50;;;54.70;;
10452;SDS011;5274;51.992;8.518;2023-11-21T13:13:43;58.58;;;54.58;;
10452;SDS011;5274;51.992;8.518;2023-11-21T13:16:09;57.83;;;53.92;;
10452;SDS011;5274;51.992;8.518;2023-11-21T13:18:35;58.85;;;54.65;;
10452;SDS011;5274;51.992;8.518;2023-11-21T13:21:03;60.60;;;56.47;;
10452;SDS011;5274;51.992;8.518;2023-11-21T13:23:35;56.53;;;52.58;;
10452;SDS011;5274;51.992;8.518;2023-11-21T13:26:02;57.97;;;53.88;;
10452;SDS011;5274;51.992;8.518;2023-11-21T13:28:29;59.67;;;55.67;;
10452;SDS011;5274;51.992;8.518;2023-11-21T13:30:58;55.38;;;51.65;;
10452;SDS011;5274;51.992;8.518;2023-11-21T13:33:28;58.67;;;54.67;;
10452;SDS011;5274;51.992;8.518;2023-11-21T13:35:54;59.75;;;55.75;;
10452;SDS011;5274;51.992;8.518;2023-11-21T13:38:21;58.85;;;54.92;;
10452;SDS011;5274;51.992;8.518;2023-11-21T13:40:49;58.70;;;54.80;;
10452;SDS011;5274;51.992;8.518;2023-11-21T13:43:18;59.50;;;55.50;;
10452;SDS011;5274;51.992;8.518;2023-11-21T13:45:45;58.47;;;54.60;;
10452;SDS011;5274;51.992;8.518;2023-11-21T13:48:11;56.53;;;53.03;;
10452;SDS011;5274;51.992;8.518;2023-11-21T13:50:45;55.60;;;52.10;;
10452;SDS011;5274;51.992;8.518;2023-11-21T13:53:20;60.10;;;56.15;;
10452;SDS011;5274;51.992;8.518;2023-11-21T13:55:51;61.58;;;57.15;;
10452;SDS011;5274;51.992;8.518;2023-11-21T13:58:22;58.97;;;54.95;;
10452;SDS011;5274;51.992;8.518;2023-11-21T14:00:57;56.80;;;53.22;;
10452;SDS011;5274;51.992;8.518;2023-11-21T14:03:23;54.38;;;50.97;;
10452;SDS011;5274;51.992;8.518;2023-11-21T14:06:02;53.83;;;50.38;;
10452;SDS011;5274;51.992;8.518;2023-11-21T14:08:33;54.88;;;51.22;;
10452;SDS011;5274;51.992;8.518;2023-11-21T14:10:59;56.53;;;52.83;;
10452;SDS011;5274;51.992;8.518;2023-11-21T14:13:28;56.13;;;52.63;;
10452;SDS011;5274;51.992;8.518;2023-11-21T14:15:54;56.55;;;52.67;;
10452;SDS011;5274;51.992;8.518;2023-11-21T14:18:26;58.63;;;54.72;;
10452;SDS011;5274;51.992;8.518;2023-11-21T14:21:15;58.88;;;54.92;;
10452;SDS011;5274;51.992;8.518;2023-11-21T14:23:41;56.38;;;52.80;;
10452;SDS011;5274;51.992;8.518;2023-11-21T14:26:08;59.95;;;55.83;;
10452;SDS011;5274;51.992;8.518;2023-11-21T14:28:34;59.67;;;55.88;;
10452;SDS011;5274;51.992;8.518;2023-11-21T14:31:01;58.67;;;54.78;;
10452;SDS011;5274;51.992;8.518;2023-11-21T14:33:28;58.95;;;55.35;;
10452;SDS011;5274;51.992;8.518;2023-11-21T14:35:54;60.03;;;56.28;;
10452;SDS011;5274;51.992;8.518;2023-11-21T14:38:19;61.42;;;57.53;;
10452;SDS011;5274;51.992;8.518;2023-11-21T14:40:45;59.67;;;55.97;;
10452;SDS011;5274;51.992;8.518;2023-11-21T14:43:13;61.53;;;57.63;;